sensor_id;sensor_type;location;lat;lon;timestamp;P1;durP1;ratioP1;P2;durP2;ratioP2
54539;SDS011;40438;52.992;18.604;2022-07-06T00:01:42;5.93;;;2.67;;
54539;SDS011;40438;52.992;18.604;2022-07-06T00:04:08;5.65;;;3.20;;
54539;SDS011;40438;52.992;18.604;2022-07-06T00:06:34;7.50;;;3.85;;
54539;SDS011;40438;52.992;18.604;2022-07-06T00:09:00;10.35;;;4.82;;
54539;SDS011;40438;52.992;18.604;2022-07-06T00:11:26;9.98;;;4.13;;
54539;SDS011;40438;52.992;18.604;2022-07-06T00:13:53;9.75;;;4.63;;
54539;SDS011;40438;52.992;18.604;2022-07-06T00:16:20;7.72;;;3.92;;
54539;SDS011;40438;52.992;18.604;2022-07-06T00:18:46;8.32;;;4.40;;
54539;SDS011;40438;52.992;18.604;2022-07-06T00:21:11;8.30;;;3.70;;
54539;SDS011;40438;52.992;18.604;2022-07-06T00:23:37;8.30;;;3.80;;
54539;SDS011;40438;52.992;18.604;2022-07-06T00:26:03;5.90;;;3.65;;
54539;SDS011;40438;52.992;18.604;2022-07-06T00:28:29;4.00;;;2.92;;
54539;SDS011;40438;52.992;18.604;2022-07-06T00:30:56;8.18;;;3.13;;
54539;SDS011;40438;52.992;18.604;2022-07-06T00:33:22;7.85;;;3.08;;
54539;SDS011;40438;52.992;18.604;2022-07-06T00:35:48;4.82;;;2.90;;
54539;SDS011;40438;52.992;18.604;2022-07-06T00:38:13;6.07;;;2.60;;
54539;SDS011;40438;52.992;18.604;2022-07-06T00:40:39;5.82;;;2.70;;
54539;SDS011;40438;52.992;18.604;2022-07-06T00:43:05;7.32;;;2.45;;
54539;SDS011;40438;52.992;18.604;2022-07-06T00:45:31;4.57;;;2.78;;
54539;SDS011;40438;52.992;18.604;2022-07-06T00:47:58;4.78;;;2.40;;
54539;SDS011;40438;52.992;18.604;2022-07-06T00:50:24;5.18;;;2.70;;
54539;SDS011;40438;52.992;18.604;2022-07-06T00:52:51;6.25;;;3.17;;
54539;SDS011;40438;52.992;18.604;2022-07-06T00:55:21;4.57;;;2.50;;
54539;SDS011;40438;52.992;18.604;2022-07-06T00:57:48;4.97;;;2.72;;
54539;SDS011;40438;52.992;18.604;2022-07-06T01:00:15;4.53;;;2.97;;
54539;SDS011;40438;52.992;18.604;2022-07-06T01:02:42;9.10;;;3.47;;
54539;SDS011;40438;52.992;18.604;2022-07-06T01:05:10;6.00;;;3.30;;
54539;SDS011;40438;52.992;18.604;2022-07-06T01:07:37;6.68;;;3.25;;
54539;SDS011;40438;52.992;18.604;2022-07-06T01:10:06;3.95;;;2.85;;
54539;SDS011;40438;52.992;18.604;2022-07-06T01:12:34;8.55;;;3.95;;
54539;SDS011;40438;52.992;18.604;2022-07-06T01:15:01;7.32;;;3.45;;
54539;SDS011;40438;52.992;18.604;2022-07-06T01:17:28;6.13;;;3.45;;
54539;SDS011;40438;52.992;18.604;2022-07-06T01:19:55;5.45;;;3.20;;
54539;SDS011;40438;52.992;18.604;2022-07-06T01:22:22;6.05;;;3.15;;
54539;SDS011;40438;52.992;18.604;2022-07-06T01:24:48;6.13;;;3.40;;
54539;SDS011;40438;52.992;18.604;2022-07-06T01:27:14;5.07;;;3.28;;
54539;SDS011;40438;52.992;18.604;2022-07-06T01:29:40;7.65;;;2.95;;
54539;SDS011;40438;52.992;18.604;2022-07-06T01:32:06;5.55;;;3.58;;
54539;SDS011;40438;52.992;18.604;2022-07-06T01:34:32;5.13;;;3.30;;
54539;SDS011;40438;52.992;18.604;2022-07-06T01:36:57;4.38;;;3.10;;
54539;SDS011;40438;52.992;18.604;2022-07-06T01:39:25;5.50;;;2.90;;
54539;SDS011;40438;52.992;18.604;2022-07-06T01:41:50;5.80;;;2.92;;
54539;SDS011;40438;52.992;18.604;2022-07-06T01:44:16;7.00;;;3.30;;
54539;SDS011;40438;52.992;18.604;2022-07-06T01:46:42;4.68;;;3.00;;
54539;SDS011;40438;52.992;18.604;2022-07-06T01:49:08;7.45;;;3.58;;
54539;SDS011;40438;52.992;18.604;2022-07-06T01:51:34;5.75;;;3.50;;
54539;SDS011;40438;52.992;18.604;2022-07-06T01:54:00;5.97;;;3.10;;
54539;SDS011;40438;52.992;18.604;2022-07-06T01:56:28;4.68;;;3.03;;
54539;SDS011;40438;52.992;18.604;2022-07-06T01:58:58;6.60;;;3.35;;
54539;SDS011;40438;52.992;18.604;2022-07-06T02:01:24;5.05;;;3.47;;
54539;SDS011;40438;52.992;18.604;2022-07-06T02:03:50;5.75;;;3.20;;
54539;SDS011;40438;52.992;18.604;2022-07-06T02:06:15;11.38;;;4.10;;
54539;SDS011;40438;52.992;18.604;2022-07-06T02:08:45;5.68;;;3.45;;
54539;SDS011;40438;52.992;18.604;2022-07-06T02:11:11;6.28;;;3.35;;
54539;SDS011;40438;52.992;18.604;2022-07-06T02:13:40;7.63;;;3.75;;
54539;SDS011;40438;52.992;18.604;2022-07-06T02:16:09;6.82;;;3.88;;
54539;SDS011;40438;52.992;18.604;2022-07-06T02:18:35;6.63;;;3.35;;
54539;SDS011;40438;52.992;18.604;2022-07-06T02:21:01;5.60;;;3.60;;
54539;SDS011;40438;52.992;18.604;2022-07-06T02:23:27;6.22;;;3.90;;
54539;SDS011;40438;52.992;18.604;2022-07-06T02:25:53;6.03;;;3.72;;
54539;SDS011;40438;52.992;18.604;2022-07-06T02:28:20;4.53;;;3.17;;
54539;SDS011;40438;52.992;18.604;2022-07-06T02:30:47;5.40;;;3.33;;
54539;SDS011;40438;52.992;18.604;2022-07-06T02:33:13;7.05;;;3.65;;
54539;SDS011;40438;52.992;18.604;2022-07-06T02:35:39;9.00;;;4.22;;
54539;SDS011;40438;52.992;18.604;2022-07-06T02:38:04;13.25;;;4.35;;
54539;SDS011;40438;52.992;18.604;2022-07-06T02:40:31;6.13;;;3.88;;
54539;SDS011;40438;52.992;18.604;2022-07-06T02:42:57;13.27;;;4.10;;
54539;SDS011;40438;52.992;18.604;2022-07-06T02:45:22;8.10;;;3.70;;
54539;SDS011;40438;52.992;18.604;2022-07-06T02:47:50;6.13;;;3.65;;
54539;SDS011;40438;52.992;18.604;2022-07-06T02:50:16;10.40;;;4.22;;
54539;SDS011;40438;52.992;18.604;2022-07-06T02:52:42;6.63;;;3.58;;
54539;SDS011;40438;52.992;18.604;2022-07-06T02:55:09;5.95;;;3.50;;
54539;SDS011;40438;52.992;18.604;2022-07-06T02:57:36;5.28;;;3.70;;
54539;SDS011;40438;52.992;18.604;2022-07-06T03:00:02;8.00;;;3.80;;
54539;SDS011;40438;52.992;18.604;2022-07-06T03:02:30;4.72;;;3.38;;
54539;SDS011;40438;52.992;18.604;2022-07-06T03:04:58;9.30;;;4.32;;
54539;SDS011;40438;52.992;18.604;2022-07-06T03:07:25;6.07;;;4.18;;
54539;SDS011;40438;52.992;18.604;2022-07-06T03:09:52;8.75;;;4.28;;
54539;SDS011;40438;52.992;18.604;2022-07-06T03:12:19;7.13;;;3.72;;
54539;SDS011;40438;52.992;18.604;2022-07-06T03:14:45;7.25;;;4.30;;
54539;SDS011;40438;52.992;18.604;2022-07-06T03:17:11;6.25;;;4.32;;
54539;SDS011;40438;52.992;18.604;2022-07-06T03:19:37;8.55;;;3.97;;
54539;SDS011;40438;52.992;18.604;2022-07-06T03:22:04;5.70;;;3.70;;
54539;SDS011;40438;52.992;18.604;2022-07-06T03:24:30;7.40;;;4.68;;
54539;SDS011;40438;52.992;18.604;2022-07-06T03:26:56;7.40;;;4.60;;
54539;SDS011;40438;52.992;18.604;2022-07-06T03:29:22;9.82;;;4.43;;
54539;SDS011;40438;52.992;18.604;2022-07-06T03:31:49;8.68;;;4.38;;
54539;SDS011;40438;52.992;18.604;2022-07-06T03:34:14;9.82;;;5.03;;
54539;SDS011;40438;52.992;18.604;2022-07-06T03:36:41;7.40;;;4.63;;
54539;SDS011;40438;52.992;18.604;2022-07-06T03:39:08;9.23;;;4.45;;
54539;SDS011;40438;52.992;18.604;2022-07-06T03:41:36;7.95;;;4.47;;
54539;SDS011;40438;52.992;18.604;2022-07-06T03:44:03;7.68;;;5.53;;
54539;SDS011;40438;52.992;18.604;2022-07-06T03:46:30;11.43;;;5.68;;
54539;SDS011;40438;52.992;18.604;2022-07-06T03:48:56;7.53;;;5.53;;
54539;SDS011;40438;52.992;18.604;2022-07-06T03:51:22;8.02;;;5.13;;
54539;SDS011;40438;52.992;18.604;2022-07-06T03:53:48;9.55;;;5.43;;
54539;SDS011;40438;52.992;18.604;2022-07-06T03:56:15;7.97;;;5.45;;
54539;SDS011;40438;52.992;18.604;2022-07-06T03:58:41;8.43;;;5.45;;
54539;SDS011;40438;52.992;18.604;2022-07-06T04:01:08;7.20;;;5.47;;
54539;SDS011;40438;52.992;18.604;2022-07-06T04:03:33;8.18;;;5.57;;
54539;SDS011;40438;52.992;18.604;2022-07-06T04:06:00;8.10;;;5.20;;
54539;SDS011;40438;52.992;18.604;2022-07-06T04:08:25;9.18;;;5.63;;
54539;SDS011;40438;52.992;18.604;2022-07-06T04:10:55;11.48;;;5.50;;
54539;SDS011;40438;52.992;18.604;2022-07-06T04:13:23;7.90;;;6.18;;
54539;SDS011;40438;52.992;18.604;2022-07-06T04:15:50;9.23;;;5.95;;
54539;SDS011;40438;52.992;18.604;2022-07-06T04:18:16;9.48;;;5.60;;
54539;SDS011;40438;52.992;18.604;2022-07-06T04:20:47;8.50;;;5.85;;
54539;SDS011;40438;52.992;18.604;2022-07-06T04:23:13;8.88;;;5.72;;
54539;SDS011;40438;52.992;18.604;2022-07-06T04:25:39;8.23;;;4.88;;
54539;SDS011;40438;52.992;18.604;2022-07-06T04:28:06;11.40;;;5.72;;
54539;SDS011;40438;52.992;18.604;2022-07-06T04:30:35;9.27;;;5.50;;
54539;SDS011;40438;52.992;18.604;2022-07-06T04:33:03;8.80;;;5.78;;
54539;SDS011;40438;52.992;18.604;2022-07-06T04:35:31;7.82;;;4.85;;
54539;SDS011;40438;52.992;18.604;2022-07-06T04:37:57;9.15;;;4.90;;
54539;SDS011;40438;52.992;18.604;2022-07-06T04:40:24;15.20;;;5.57;;
54539;SDS011;40438;52.992;18.604;2022-07-06T04:42:55;7.45;;;5.43;;
54539;SDS011;40438;52.992;18.604;2022-07-06T04:45:21;8.25;;;4.90;;
54539;SDS011;40438;52.992;18.604;2022-07-06T04:47:49;7.75;;;5.03;;
54539;SDS011;40438;52.992;18.604;2022-07-06T04:50:16;10.13;;;5.65;;
54539;SDS011;40438;52.992;18.604;2022-07-06T04:52:43;10.43;;;5.78;;
54539;SDS011;40438;52.992;18.604;2022-07-06T04:55:09;9.82;;;5.40;;
54539;SDS011;40438;52.992;18.604;2022-07-06T04:57:35;7.57;;;5.47;;
54539;SDS011;40438;52.992;18.604;2022-07-06T05:00:02;8.73;;;5.78;;
54539;SDS011;40438;52.992;18.604;2022-07-06T05:02:29;8.15;;;4.85;;
54539;SDS011;40438;52.992;18.604;2022-07-06T05:04:57;6.97;;;4.90;;
54539;SDS011;40438;52.992;18.604;2022-07-06T05:07:23;11.30;;;5.53;;
54539;SDS011;40438;52.992;18.604;2022-07-06T05:09:49;8.38;;;5.63;;
54539;SDS011;40438;52.992;18.604;2022-07-06T05:12:16;11.40;;;6.03;;
54539;SDS011;40438;52.992;18.604;2022-07-06T05:14:42;7.82;;;4.95;;
54539;SDS011;40438;52.992;18.604;2022-07-06T05:17:08;8.45;;;4.55;;
54539;SDS011;40438;52.992;18.604;2022-07-06T05:19:34;7.75;;;4.80;;
54539;SDS011;40438;52.992;18.604;2022-07-06T05:22:01;9.05;;;4.90;;
54539;SDS011;40438;52.992;18.604;2022-07-06T05:24:28;7.38;;;4.68;;
54539;SDS011;40438;52.992;18.604;2022-07-06T05:26:54;9.25;;;4.55;;
54539;SDS011;40438;52.992;18.604;2022-07-06T05:29:20;9.70;;;4.00;;
54539;SDS011;40438;52.992;18.604;2022-07-06T05:31:45;7.70;;;5.20;;
54539;SDS011;40438;52.992;18.604;2022-07-06T05:34:12;4.30;;;3.42;;
54539;SDS011;40438;52.992;18.604;2022-07-06T05:36:38;7.32;;;3.25;;
54539;SDS011;40438;52.992;18.604;2022-07-06T05:39:05;8.10;;;3.30;;
54539;SDS011;40438;52.992;18.604;2022-07-06T05:41:31;6.97;;;3.65;;
54539;SDS011;40438;52.992;18.604;2022-07-06T05:43:59;18.00;;;4.32;;
54539;SDS011;40438;52.992;18.604;2022-07-06T05:46:25;5.82;;;4.05;;
54539;SDS011;40438;52.992;18.604;2022-07-06T05:48:50;16.30;;;6.40;;
54539;SDS011;40438;52.992;18.604;2022-07-06T05:51:17;13.73;;;3.92;;
54539;SDS011;40438;52.992;18.604;2022-07-06T05:53:44;6.60;;;3.33;;
54539;SDS011;40438;52.992;18.604;2022-07-06T05:56:12;7.90;;;3.22;;
54539;SDS011;40438;52.992;18.604;2022-07-06T05:58:39;14.82;;;3.42;;
54539;SDS011;40438;52.992;18.604;2022-07-06T06:01:04;5.35;;;2.53;;
54539;SDS011;40438;52.992;18.604;2022-07-06T06:03:32;8.27;;;2.45;;
54539;SDS011;40438;52.992;18.604;2022-07-06T06:05:58;6.22;;;2.83;;
54539;SDS011;40438;52.992;18.604;2022-07-06T06:08:25;3.22;;;2.78;;
54539;SDS011;40438;52.992;18.604;2022-07-06T06:10:51;5.05;;;2.30;;
54539;SDS011;40438;52.992;18.604;2022-07-06T06:13:20;5.68;;;2.50;;
54539;SDS011;40438;52.992;18.604;2022-07-06T06:15:47;5.00;;;2.30;;
54539;SDS011;40438;52.992;18.604;2022-07-06T06:18:14;7.00;;;2.65;;
54539;SDS011;40438;52.992;18.604;2022-07-06T06:20:40;5.40;;;1.80;;
54539;SDS011;40438;52.992;18.604;2022-07-06T06:23:06;6.80;;;2.38;;
54539;SDS011;40438;52.992;18.604;2022-07-06T06:25:32;4.90;;;1.70;;
54539;SDS011;40438;52.992;18.604;2022-07-06T06:27:59;6.93;;;2.22;;
54539;SDS011;40438;52.992;18.604;2022-07-06T06:30:26;2.70;;;1.90;;
54539;SDS011;40438;52.992;18.604;2022-07-06T06:32:52;16.40;;;2.35;;
54539;SDS011;40438;52.992;18.604;2022-07-06T06:35:31;15.05;;;4.47;;
54539;SDS011;40438;52.992;18.604;2022-07-06T06:37:57;3.95;;;1.50;;
54539;SDS011;40438;52.992;18.604;2022-07-06T06:40:23;8.25;;;2.00;;
54539;SDS011;40438;52.992;18.604;2022-07-06T06:42:49;5.78;;;1.77;;
54539;SDS011;40438;52.992;18.604;2022-07-06T06:45:16;4.38;;;1.50;;
54539;SDS011;40438;52.992;18.604;2022-07-06T06:47:43;2.80;;;1.40;;
54539;SDS011;40438;52.992;18.604;2022-07-06T06:50:08;7.38;;;1.17;;
54539;SDS011;40438;52.992;18.604;2022-07-06T06:52:34;5.78;;;1.45;;
54539;SDS011;40438;52.992;18.604;2022-07-06T06:55:00;2.33;;;1.00;;
54539;SDS011;40438;52.992;18.604;2022-07-06T06:57:26;1.63;;;1.10;;
54539;SDS011;40438;52.992;18.604;2022-07-06T06:59:51;2.55;;;1.50;;
54539;SDS011;40438;52.992;18.604;2022-07-06T07:02:17;7.00;;;1.27;;
54539;SDS011;40438;52.992;18.604;2022-07-06T07:04:44;3.38;;;1.10;;
54539;SDS011;40438;52.992;18.604;2022-07-06T07:07:10;2.67;;;1.20;;
54539;SDS011;40438;52.992;18.604;2022-07-06T07:09:36;5.20;;;1.63;;
54539;SDS011;40438;52.992;18.604;2022-07-06T07:12:01;4.30;;;1.90;;
54539;SDS011;40438;52.992;18.604;2022-07-06T07:14:28;3.60;;;1.98;;
54539;SDS011;40438;52.992;18.604;2022-07-06T07:16:53;2.40;;;1.90;;
54539;SDS011;40438;52.992;18.604;2022-07-06T07:19:19;9.27;;;1.92;;
54539;SDS011;40438;52.992;18.604;2022-07-06T07:21:46;3.58;;;2.22;;
54539;SDS011;40438;52.992;18.604;2022-07-06T07:24:12;7.47;;;2.17;;
54539;SDS011;40438;52.992;18.604;2022-07-06T07:26:38;7.57;;;2.40;;
54539;SDS011;40438;52.992;18.604;2022-07-06T07:29:03;2.67;;;1.95;;
54539;SDS011;40438;52.992;18.604;2022-07-06T07:31:29;3.35;;;2.08;;
54539;SDS011;40438;52.992;18.604;2022-07-06T07:33:55;2.47;;;1.55;;
54539;SDS011;40438;52.992;18.604;2022-07-06T07:36:21;3.03;;;1.08;;
54539;SDS011;40438;52.992;18.604;2022-07-06T07:38:48;3.40;;;0.90;;
54539;SDS011;40438;52.992;18.604;2022-07-06T07:41:13;1.50;;;1.02;;
54539;SDS011;40438;52.992;18.604;2022-07-06T07:43:39;3.10;;;0.80;;
54539;SDS011;40438;52.992;18.604;2022-07-06T07:46:05;5.15;;;1.05;;
54539;SDS011;40438;52.992;18.604;2022-07-06T07:48:31;4.75;;;1.70;;
54539;SDS011;40438;52.992;18.604;2022-07-06T07:50:56;1.55;;;0.90;;
54539;SDS011;40438;52.992;18.604;2022-07-06T07:53:22;1.27;;;0.80;;
54539;SDS011;40438;52.992;18.604;2022-07-06T07:55:49;4.00;;;0.93;;
54539;SDS011;40438;52.992;18.604;2022-07-06T07:58:15;2.88;;;0.98;;
54539;SDS011;40438;52.992;18.604;2022-07-06T08:00:41;2.45;;;1.08;;
54539;SDS011;40438;52.992;18.604;2022-07-06T08:03:06;1.40;;;1.20;;
54539;SDS011;40438;52.992;18.604;2022-07-06T08:05:32;4.07;;;1.08;;
54539;SDS011;40438;52.992;18.604;2022-07-06T08:07:58;1.77;;;1.13;;
54539;SDS011;40438;52.992;18.604;2022-07-06T08:10:24;1.27;;;0.98;;
54539;SDS011;40438;52.992;18.604;2022-07-06T08:12:51;5.28;;;1.35;;
54539;SDS011;40438;52.992;18.604;2022-07-06T08:15:16;3.75;;;1.20;;
54539;SDS011;40438;52.992;18.604;2022-07-06T08:17:42;2.65;;;1.00;;
54539;SDS011;40438;52.992;18.604;2022-07-06T08:20:08;6.18;;;1.50;;
54539;SDS011;40438;52.992;18.604;2022-07-06T08:22:35;53.05;;;3.85;;
54539;SDS011;40438;52.992;18.604;2022-07-06T08:25:01;3.17;;;1.05;;
54539;SDS011;40438;52.992;18.604;2022-07-06T08:27:26;3.13;;;1.00;;
54539;SDS011;40438;52.992;18.604;2022-07-06T08:29:53;4.38;;;1.42;;
54539;SDS011;40438;52.992;18.604;2022-07-06T08:32:19;8.50;;;1.42;;
54539;SDS011;40438;52.992;18.604;2022-07-06T08:34:45;1.25;;;0.90;;
54539;SDS011;40438;52.992;18.604;2022-07-06T08:37:11;6.13;;;1.10;;
54539;SDS011;40438;52.992;18.604;2022-07-06T08:39:36;4.75;;;0.95;;
54539;SDS011;40438;52.992;18.604;2022-07-06T08:42:04;7.13;;;0.90;;
54539;SDS011;40438;52.992;18.604;2022-07-06T08:44:32;2.65;;;1.00;;
54539;SDS011;40438;52.992;18.604;2022-07-06T08:47:04;1.08;;;0.70;;
54539;SDS011;40438;52.992;18.604;2022-07-06T08:49:31;2.83;;;1.20;;
54539;SDS011;40438;52.992;18.604;2022-07-06T08:51:58;7.28;;;1.13;;
54539;SDS011;40438;52.992;18.604;2022-07-06T08:54:24;2.28;;;1.15;;
54539;SDS011;40438;52.992;18.604;2022-07-06T08:56:51;8.13;;;1.20;;
54539;SDS011;40438;52.992;18.604;2022-07-06T08:59:17;2.70;;;1.05;;
54539;SDS011;40438;52.992;18.604;2022-07-06T09:01:43;1.13;;;0.90;;
54539;SDS011;40438;52.992;18.604;2022-07-06T09:04:10;1.75;;;1.00;;
54539;SDS011;40438;52.992;18.604;2022-07-06T09:06:38;3.42;;;1.05;;
54539;SDS011;40438;52.992;18.604;2022-07-06T09:09:07;5.20;;;1.10;;
54539;SDS011;40438;52.992;18.604;2022-07-06T09:11:34;3.17;;;0.82;;
54539;SDS011;40438;52.992;18.604;2022-07-06T09:14:00;1.52;;;0.80;;
54539;SDS011;40438;52.992;18.604;2022-07-06T09:16:27;3.08;;;0.85;;
54539;SDS011;40438;52.992;18.604;2022-07-06T09:18:54;1.95;;;0.73;;
54539;SDS011;40438;52.992;18.604;2022-07-06T09:21:24;2.95;;;0.93;;
54539;SDS011;40438;52.992;18.604;2022-07-06T09:23:52;9.05;;;1.17;;
54539;SDS011;40438;52.992;18.604;2022-07-06T09:26:19;1.52;;;1.00;;
54539;SDS011;40438;52.992;18.604;2022-07-06T09:28:45;3.83;;;0.80;;
54539;SDS011;40438;52.992;18.604;2022-07-06T09:31:11;5.82;;;0.95;;
54539;SDS011;40438;52.992;18.604;2022-07-06T09:33:37;4.35;;;1.10;;
54539;SDS011;40438;52.992;18.604;2022-07-06T09:36:03;1.95;;;0.90;;
54539;SDS011;40438;52.992;18.604;2022-07-06T09:38:31;5.90;;;1.20;;
54539;SDS011;40438;52.992;18.604;2022-07-06T09:40:57;6.18;;;1.55;;
54539;SDS011;40438;52.992;18.604;2022-07-06T09:43:24;3.85;;;1.05;;
54539;SDS011;40438;52.992;18.604;2022-07-06T09:45:51;2.55;;;0.95;;
54539;SDS011;40438;52.992;18.604;2022-07-06T09:48:18;9.15;;;1.05;;
54539;SDS011;40438;52.992;18.604;2022-07-06T09:50:46;0.73;;;0.70;;
54539;SDS011;40438;52.992;18.604;2022-07-06T09:53:13;1.70;;;0.55;;
54539;SDS011;40438;52.992;18.604;2022-07-06T09:55:43;5.20;;;1.10;;
54539;SDS011;40438;52.992;18.604;2022-07-06T09:58:10;2.90;;;0.80;;
54539;SDS011;40438;52.992;18.604;2022-07-06T10:00:36;0.85;;;0.70;;
54539;SDS011;40438;52.992;18.604;2022-07-06T10:03:02;1.25;;;0.80;;
54539;SDS011;40438;52.992;18.604;2022-07-06T10:05:28;1.35;;;0.75;;
54539;SDS011;40438;52.992;18.604;2022-07-06T10:07:56;4.90;;;1.13;;
54539;SDS011;40438;52.992;18.604;2022-07-06T10:10:24;2.67;;;0.90;;
54539;SDS011;40438;52.992;18.604;2022-07-06T10:12:52;1.95;;;0.93;;
54539;SDS011;40438;52.992;18.604;2022-07-06T10:15:21;1.98;;;0.73;;
54539;SDS011;40438;52.992;18.604;2022-07-06T10:17:47;1.73;;;0.80;;
54539;SDS011;40438;52.992;18.604;2022-07-06T10:20:13;2.17;;;0.63;;
54539;SDS011;40438;52.992;18.604;2022-07-06T10:22:40;5.35;;;0.90;;
54539;SDS011;40438;52.992;18.604;2022-07-06T10:25:06;0.77;;;0.70;;
54539;SDS011;40438;52.992;18.604;2022-07-06T10:27:32;3.38;;;0.90;;
54539;SDS011;40438;52.992;18.604;2022-07-06T10:30:01;3.47;;;1.05;;
54539;SDS011;40438;52.992;18.604;2022-07-06T10:32:27;4.72;;;0.80;;
54539;SDS011;40438;52.992;18.604;2022-07-06T10:34:53;2.78;;;1.17;;
54539;SDS011;40438;52.992;18.604;2022-07-06T10:37:23;3.33;;;1.08;;
54539;SDS011;40438;52.992;18.604;2022-07-06T10:39:49;3.53;;;0.77;;
54539;SDS011;40438;52.992;18.604;2022-07-06T10:45:13;3.72;;;0.70;;
54539;SDS011;40438;52.992;18.604;2022-07-06T10:47:40;1.20;;;0.80;;
54539;SDS011;40438;52.992;18.604;2022-07-06T10:50:06;3.60;;;0.93;;
54539;SDS011;40438;52.992;18.604;2022-07-06T10:55:26;1.10;;;1.00;;
54539;SDS011;40438;52.992;18.604;2022-07-06T10:57:54;11.88;;;1.20;;
54539;SDS011;40438;52.992;18.604;2022-07-06T11:00:21;7.40;;;1.23;;
54539;SDS011;40438;52.992;18.604;2022-07-06T11:02:47;5.15;;;1.23;;
54539;SDS011;40438;52.992;18.604;2022-07-06T11:05:14;8.85;;;1.20;;
54539;SDS011;40438;52.992;18.604;2022-07-06T11:08:05;1.73;;;1.23;;
54539;SDS011;40438;52.992;18.604;2022-07-06T11:10:45;3.38;;;1.60;;
54539;SDS011;40438;52.992;18.604;2022-07-06T11:13:21;2.75;;;1.30;;
54539;SDS011;40438;52.992;18.604;2022-07-06T11:15:51;1.70;;;1.25;;
54539;SDS011;40438;52.992;18.604;2022-07-06T11:18:25;2.40;;;1.40;;
54539;SDS011;40438;52.992;18.604;2022-07-06T11:23:41;1.63;;;1.20;;
54539;SDS011;40438;52.992;18.604;2022-07-06T11:26:07;8.60;;;1.52;;
54539;SDS011;40438;52.992;18.604;2022-07-06T11:28:33;8.23;;;1.45;;
54539;SDS011;40438;52.992;18.604;2022-07-06T11:31:01;6.13;;;1.38;;
54539;SDS011;40438;52.992;18.604;2022-07-06T11:33:30;3.60;;;1.42;;
54539;SDS011;40438;52.992;18.604;2022-07-06T11:36:10;2.25;;;1.30;;
54539;SDS011;40438;52.992;18.604;2022-07-06T11:38:37;1.38;;;1.25;;
54539;SDS011;40438;52.992;18.604;2022-07-06T11:41:02;9.38;;;1.73;;
54539;SDS011;40438;52.992;18.604;2022-07-06T11:43:28;1.75;;;1.25;;
54539;SDS011;40438;52.992;18.604;2022-07-06T11:45:54;3.78;;;1.60;;
54539;SDS011;40438;52.992;18.604;2022-07-06T11:48:21;3.47;;;1.52;;
54539;SDS011;40438;52.992;18.604;2022-07-06T11:50:56;3.80;;;1.40;;
54539;SDS011;40438;52.992;18.604;2022-07-06T11:53:23;4.85;;;1.75;;
54539;SDS011;40438;52.992;18.604;2022-07-06T11:55:49;2.75;;;1.40;;
54539;SDS011;40438;52.992;18.604;2022-07-06T11:58:15;4.63;;;1.30;;
54539;SDS011;40438;52.992;18.604;2022-07-06T12:00:43;3.05;;;1.40;;
54539;SDS011;40438;52.992;18.604;2022-07-06T12:03:09;3.78;;;1.30;;
54539;SDS011;40438;52.992;18.604;2022-07-06T12:05:36;1.75;;;1.20;;
54539;SDS011;40438;52.992;18.604;2022-07-06T12:08:04;2.28;;;1.40;;
54539;SDS011;40438;52.992;18.604;2022-07-06T12:10:31;6.07;;;1.27;;
54539;SDS011;40438;52.992;18.604;2022-07-06T12:13:01;3.15;;;1.48;;
54539;SDS011;40438;52.992;18.604;2022-07-06T12:15:28;4.70;;;1.50;;
54539;SDS011;40438;52.992;18.604;2022-07-06T12:17:53;2.60;;;1.33;;
54539;SDS011;40438;52.992;18.604;2022-07-06T12:20:19;8.13;;;1.70;;
54539;SDS011;40438;52.992;18.604;2022-07-06T12:22:46;3.33;;;1.67;;
54539;SDS011;40438;52.992;18.604;2022-07-06T12:25:18;2.92;;;1.30;;
54539;SDS011;40438;52.992;18.604;2022-07-06T12:27:54;4.38;;;1.50;;
54539;SDS011;40438;52.992;18.604;2022-07-06T12:30:20;3.67;;;1.38;;
54539;SDS011;40438;52.992;18.604;2022-07-06T12:32:46;2.72;;;1.48;;
54539;SDS011;40438;52.992;18.604;2022-07-06T12:35:12;5.18;;;1.35;;
54539;SDS011;40438;52.992;18.604;2022-07-06T12:37:37;3.28;;;1.27;;
54539;SDS011;40438;52.992;18.604;2022-07-06T12:40:21;3.03;;;1.02;;
54539;SDS011;40438;52.992;18.604;2022-07-06T12:42:51;3.60;;;1.63;;
54539;SDS011;40438;52.992;18.604;2022-07-06T12:45:17;1.88;;;1.45;;
54539;SDS011;40438;52.992;18.604;2022-07-06T12:47:56;5.82;;;1.20;;
54539;SDS011;40438;52.992;18.604;2022-07-06T12:50:29;1.42;;;1.20;;
54539;SDS011;40438;52.992;18.604;2022-07-06T12:52:56;9.15;;;2.17;;
54539;SDS011;40438;52.992;18.604;2022-07-06T12:55:26;4.82;;;1.40;;
54539;SDS011;40438;52.992;18.604;2022-07-06T12:57:53;1.40;;;1.20;;
54539;SDS011;40438;52.992;18.604;2022-07-06T13:00:19;3.45;;;1.15;;
54539;SDS011;40438;52.992;18.604;2022-07-06T13:02:46;2.50;;;1.42;;
54539;SDS011;40438;52.992;18.604;2022-07-06T13:05:14;4.43;;;1.00;;
54539;SDS011;40438;52.992;18.604;2022-07-06T13:07:44;1.75;;;1.15;;
54539;SDS011;40438;52.992;18.604;2022-07-06T13:10:11;4.40;;;1.27;;
54539;SDS011;40438;52.992;18.604;2022-07-06T13:12:39;2.85;;;1.40;;
54539;SDS011;40438;52.992;18.604;2022-07-06T13:15:06;3.00;;;1.20;;
54539;SDS011;40438;52.992;18.604;2022-07-06T13:17:32;2.10;;;1.50;;
54539;SDS011;40438;52.992;18.604;2022-07-06T13:19:59;2.05;;;1.40;;
54539;SDS011;40438;52.992;18.604;2022-07-06T13:22:25;4.15;;;1.48;;
54539;SDS011;40438;52.992;18.604;2022-07-06T13:24:50;3.60;;;1.40;;
54539;SDS011;40438;52.992;18.604;2022-07-06T13:27:16;10.32;;;1.63;;
54539;SDS011;40438;52.992;18.604;2022-07-06T13:29:43;3.22;;;1.40;;
54539;SDS011;40438;52.992;18.604;2022-07-06T13:32:09;9.68;;;1.50;;
54539;SDS011;40438;52.992;18.604;2022-07-06T13:34:35;1.45;;;1.00;;
54539;SDS011;40438;52.992;18.604;2022-07-06T13:37:01;1.92;;;1.40;;
54539;SDS011;40438;52.992;18.604;2022-07-06T13:39:27;3.63;;;1.38;;
54539;SDS011;40438;52.992;18.604;2022-07-06T13:41:53;4.45;;;1.20;;
54539;SDS011;40438;52.992;18.604;2022-07-06T13:44:18;4.75;;;1.45;;
54539;SDS011;40438;52.992;18.604;2022-07-06T13:46:46;2.08;;;1.15;;
54539;SDS011;40438;52.992;18.604;2022-07-06T13:49:11;3.42;;;1.30;;
54539;SDS011;40438;52.992;18.604;2022-07-06T13:51:37;3.75;;;1.13;;
54539;SDS011;40438;52.992;18.604;2022-07-06T13:54:04;2.10;;;1.13;;
54539;SDS011;40438;52.992;18.604;2022-07-06T13:56:30;2.47;;;1.40;;
54539;SDS011;40438;52.992;18.604;2022-07-06T13:58:57;3.90;;;1.60;;
54539;SDS011;40438;52.992;18.604;2022-07-06T14:01:22;6.72;;;3.08;;
54539;SDS011;40438;52.992;18.604;2022-07-06T14:03:50;5.40;;;1.13;;
54539;SDS011;40438;52.992;18.604;2022-07-06T14:06:16;2.05;;;1.48;;
54539;SDS011;40438;52.992;18.604;2022-07-06T14:08:43;6.25;;;1.42;;
54539;SDS011;40438;52.992;18.604;2022-07-06T14:11:09;3.33;;;1.17;;
54539;SDS011;40438;52.992;18.604;2022-07-06T14:13:35;3.53;;;1.27;;
54539;SDS011;40438;52.992;18.604;2022-07-06T14:16:02;2.45;;;1.20;;
54539;SDS011;40438;52.992;18.604;2022-07-06T14:18:28;1.88;;;1.20;;
54539;SDS011;40438;52.992;18.604;2022-07-06T14:20:55;2.75;;;1.30;;
54539;SDS011;40438;52.992;18.604;2022-07-06T14:23:21;1.95;;;1.20;;
54539;SDS011;40438;52.992;18.604;2022-07-06T14:25:48;1.17;;;1.08;;
54539;SDS011;40438;52.992;18.604;2022-07-06T14:28:14;2.25;;;1.10;;
54539;SDS011;40438;52.992;18.604;2022-07-06T14:30:40;1.02;;;0.80;;
54539;SDS011;40438;52.992;18.604;2022-07-06T14:33:06;1.60;;;1.42;;
54539;SDS011;40438;52.992;18.604;2022-07-06T14:35:34;3.55;;;1.20;;
54539;SDS011;40438;52.992;18.604;2022-07-06T14:38:01;3.08;;;1.20;;
54539;SDS011;40438;52.992;18.604;2022-07-06T14:40:27;7.15;;;1.13;;